createdAt,value
2023-03-05T00:02:35.840Z,5.4
2023-03-05T00:08:13.189Z,5.3
2023-03-05T00:14:06.462Z,5.3
2023-03-05T00:19:58.245Z,5.3
2023-03-05T00:25:04.808Z,5.3
2023-03-05T00:30:59.841Z,5.2
2023-03-05T00:36:52.495Z,5.2
2023-03-05T00:42:46.129Z,5.2
2023-03-05T00:48:39.442Z,5.1
2023-03-05T00:54:32.057Z,5.2
2023-03-05T01:00:24.791Z,5.2
2023-03-05T01:06:18.546Z,5.1
2023-03-05T01:12:10.267Z,5.1
2023-03-05T01:17:47.664Z,5.1
2023-03-05T01:23:40.214Z,5.1
2023-03-05T01:29:16.982Z,5.1
2023-03-05T01:34:40.464Z,5.1
2023-03-05T01:40:34.421Z,5.1
2023-03-05T01:46:27.114Z,5.1
2023-03-05T01:52:04.851Z,5.1
2023-03-05T01:57:58.008Z,5.1
2023-03-05T02:03:51.056Z,5.1
2023-03-05T02:09:27.646Z,5.1
2023-03-05T02:15:05.176Z,5.1
2023-03-05T02:20:41.987Z,5.1
2023-03-05T02:26:34.308Z,5.1
2023-03-05T02:31:55.788Z,5.1
2023-03-05T02:37:48.419Z,5
2023-03-05T02:43:41.047Z,5
2023-03-05T02:49:33.745Z,5
2023-03-05T02:55:26.858Z,5
2023-03-05T03:01:20.085Z,5
2023-03-05T03:07:13.309Z,4.9
2023-03-05T03:12:35.218Z,4.9
2023-03-05T03:18:13.331Z,4.9
2023-03-05T03:24:05.560Z,4.9
2023-03-05T03:29:43.252Z,4.9
2023-03-05T03:35:20.557Z,4.8
2023-03-05T03:40:57.933Z,4.8
2023-03-05T03:46:50.567Z,4.8
2023-03-05T03:52:26.805Z,4.8
2023-03-05T03:58:18.844Z,4.8
2023-03-05T04:04:11.939Z,4.7
2023-03-05T04:10:02.958Z,4.7
2023-03-05T04:15:56.092Z,4.6
2023-03-05T04:21:18.526Z,4.6
2023-03-05T04:27:10.528Z,4.5
2023-03-05T04:33:03.480Z,4.4
2023-03-05T04:38:56.916Z,4.4
2023-03-05T04:44:48.698Z,4.4
2023-03-05T04:50:40.877Z,4.3
2023-03-05T04:56:33.564Z,4.3
2023-03-05T05:01:56.918Z,4.3
2023-03-05T05:07:33.890Z,4.3
2023-03-05T05:13:26.561Z,4.3
2023-03-05T05:19:19.594Z,4.3
2023-03-05T05:25:12.458Z,4.3
2023-03-05T05:31:05.276Z,4.4
2023-03-05T05:36:58.438Z,4.6
2023-03-05T05:42:51.048Z,4.8
2023-03-05T05:48:44.405Z,5.2
2023-03-05T05:54:37.848Z,5.7
2023-03-05T06:00:14.433Z,6.4
2023-03-05T06:06:10.426Z,7.3
2023-03-05T06:12:02.907Z,8.1
2023-03-05T06:18:04.447Z,8.9
2023-03-05T06:23:57.127Z,9.7
2023-03-05T06:29:49.828Z,10.4
2023-03-05T06:35:42.582Z,11.2
2023-03-05T06:41:35.248Z,11.8
2023-03-05T06:47:28.258Z,12.5
2023-03-05T06:53:05.886Z,13.1
2023-03-05T06:58:59.606Z,14.1
2023-03-05T07:04:52.935Z,15.5
2023-03-05T07:10:45.326Z,18
2023-03-05T07:16:40.889Z,21.8
2023-03-05T07:22:33.421Z,26.9
2023-03-05T07:28:26.359Z,31.9
2023-03-05T07:34:20.223Z,35.2
2023-03-05T07:40:12.709Z,36.8
2023-03-05T07:45:50.706Z,37.8
2023-03-05T07:51:44.160Z,36.8
2023-03-05T07:57:22.410Z,36.6
2023-03-05T08:03:16.219Z,37.9
2023-03-05T08:09:10.115Z,40.1
2023-03-05T08:15:03.229Z,39.9
2023-03-05T08:20:56.313Z,40
2023-03-05T08:26:34.148Z,40.1
2023-03-05T08:32:28.719Z,40.5
2023-03-05T08:38:22.452Z,43.4
2023-03-05T08:44:16.494Z,47.4
2023-03-05T08:50:09.539Z,54.5
2023-03-05T08:56:02.540Z,58.9
2023-03-05T09:01:55.469Z,57.9
2023-03-05T09:07:33.299Z,55.5
2023-03-05T09:13:25.730Z,53
2023-03-05T09:19:19.261Z,52.1
2023-03-05T09:25:12.847Z,50.4
2023-03-05T09:31:06.278Z,48.5
2023-03-05T09:37:00.235Z,46.3
2023-03-05T09:42:53.381Z,44.6
2023-03-05T09:48:46.730Z,42.9
2023-03-05T09:54:39.320Z,41.2
2023-03-05T10:00:31.378Z,39.8
2023-03-05T10:06:24.162Z,38.6
2023-03-05T10:12:16.564Z,38
2023-03-05T10:18:10.003Z,38.3
2023-03-05T10:23:32.587Z,38.9
2023-03-05T10:29:24.373Z,38.6
2023-03-05T10:35:18.656Z,38.2
2023-03-05T10:41:12.439Z,37.9
2023-03-05T10:47:05.371Z,38.8
2023-03-05T10:52:58.829Z,42
2023-03-05T10:58:36.160Z,49.3
2023-03-05T11:04:29.756Z,54.1
2023-03-05T11:10:24.902Z,55.4
2023-03-05T11:16:03.402Z,62
2023-03-05T11:21:59.781Z,55.9
2023-03-05T11:27:54.763Z,47.4
2023-03-05T11:33:53.551Z,46
2023-03-05T11:39:30.933Z,46.6
2023-03-05T11:45:25.626Z,50.4
2023-03-05T11:51:20.093Z,56
2023-03-05T11:57:14.077Z,58.6
2023-03-05T12:03:10.227Z,65.3
2023-03-05T12:08:47.918Z,52.2
2023-03-05T12:14:41.403Z,48.6
2023-03-05T12:20:35.409Z,47.9
2023-03-05T12:25:57.097Z,52.3
2023-03-05T12:31:53.452Z,55.6
2023-03-05T12:37:52.144Z,58.9
2023-03-05T12:44:03.720Z,56.5
2023-03-05T12:49:42.362Z,53.4
2023-03-05T12:55:20.075Z,52.6
2023-03-05T13:00:59.653Z,51.5
2023-03-05T13:06:37.567Z,49.2
2023-03-05T13:12:31.131Z,47.4
2023-03-05T13:18:25.290Z,45.3
2023-03-05T13:24:19.152Z,43.5
2023-03-05T13:30:13.003Z,41.6
2023-03-05T13:36:15.798Z,39.5
2023-03-05T13:42:10.967Z,37.4
2023-03-05T13:48:04.171Z,35.4
2023-03-05T13:53:57.989Z,33.5
2023-03-05T13:59:54.346Z,32.1
2023-03-05T14:05:52.720Z,30.7
2023-03-05T14:11:45.549Z,29.3
2023-03-05T14:22:45.700Z,26.3
2023-03-05T14:28:47.751Z,24.8
2023-03-05T14:34:41.130Z,23.4
2023-03-05T14:40:20.628Z,22.1
2023-03-05T14:45:57.810Z,20.9
2023-03-05T14:51:18.397Z,19.9
2023-03-05T14:56:55.589Z,18.9
2023-03-05T15:02:50.970Z,18
2023-03-05T15:08:44.615Z,17.1
2023-03-05T15:14:37.159Z,16.3
2023-03-05T15:20:30.144Z,15.6
2023-03-05T15:25:53.091Z,15.1
2023-03-05T15:31:34.350Z,14.4
2023-03-05T15:36:40.694Z,13.9
2023-03-05T15:42:17.822Z,13.4
2023-03-05T15:47:55.623Z,12.8
2023-03-05T15:53:34.400Z,12.3
2023-03-05T15:59:11.478Z,11.8
2023-03-05T16:04:48.550Z,11.4
2023-03-05T16:10:27.309Z,11
2023-03-05T16:16:05.891Z,10.6
2023-03-05T16:21:43.118Z,10.3
2023-03-05T16:27:20.366Z,9.9
2023-03-05T16:32:57.936Z,9.5
2023-03-05T16:38:20.104Z,9.2
2023-03-05T16:44:22.398Z,8.9
2023-03-05T16:49:45.043Z,8.5
2023-03-05T16:55:27.391Z,8.2
2023-03-05T17:01:11.543Z,7.9
2023-03-05T17:06:48.017Z,7.6
2023-03-05T17:12:26.846Z,7.4
2023-03-05T17:18:04.914Z,7.1
2023-03-05T17:23:44.148Z,6.9
2023-03-05T17:29:21.715Z,6.8
2023-03-05T17:35:10.339Z,6.6
2023-03-05T17:40:46.849Z,6.4
2023-03-05T17:46:39.996Z,6.2
2023-03-05T17:52:17.151Z,6.1
2023-03-05T17:58:11.205Z,5.9
2023-03-05T18:04:04.188Z,5.8
2023-03-05T18:09:42.065Z,5.6
2023-03-05T18:15:19.607Z,5.4
2023-03-05T18:21:15.753Z,5.3
2023-03-05T18:27:08.948Z,5.2
2023-03-05T18:33:00.868Z,5.1
2023-03-05T18:38:54.382Z,4.9
2023-03-05T18:44:37.360Z,4.9
2023-03-05T18:50:15.308Z,4.8
2023-03-05T18:56:08.275Z,4.7
2023-03-05T19:02:00.976Z,4.5
2023-03-05T19:07:54.975Z,4.4
2023-03-05T19:13:32.560Z,4.4
2023-03-05T19:19:11.315Z,4.3
2023-03-05T19:25:04.021Z,4.1
2023-03-05T19:30:56.105Z,4.1
2023-03-05T19:36:50.113Z,4
2023-03-05T19:42:42.929Z,3.9
2023-03-05T19:48:36.805Z,3.8
2023-03-05T19:54:32.992Z,3.7
2023-03-05T19:59:40.151Z,3.6
2023-03-05T20:05:34.269Z,3.4
2023-03-05T20:11:12.950Z,3.3
2023-03-05T20:17:06.385Z,3.1
2023-03-05T20:22:59.780Z,2.9
2023-03-05T20:28:57.682Z,2.8
2023-03-05T20:34:39.182Z,2.6
2023-03-05T20:40:33.601Z,2.4
2023-03-05T20:46:11.789Z,2.3
2023-03-05T20:51:50.263Z,2.1
2023-03-05T20:57:28.931Z,2
2023-03-05T21:02:52.408Z,1.8
2023-03-05T21:07:59.449Z,1.7
2023-03-05T21:13:37.968Z,1.6
2023-03-05T21:19:33.622Z,1.4
2023-03-05T21:25:11.548Z,1.4
2023-03-05T21:30:48.987Z,1.3
2023-03-05T21:36:44.968Z,1.3
2023-03-05T21:42:21.979Z,1.2
2023-03-05T21:48:15.578Z,1.1
2023-03-05T21:54:07.577Z,1.1
2023-03-05T22:00:00.017Z,1
2023-03-05T22:05:37.296Z,0.9
2023-03-05T22:11:14.293Z,0.9
2023-03-05T22:17:07.672Z,0.8
2023-03-05T22:22:45.468Z,0.8
2023-03-05T22:28:38.125Z,0.7
2023-03-05T22:34:15.248Z,0.6
2023-03-05T22:40:08.651Z,0.5
2023-03-05T22:45:30.106Z,0.4
2023-03-05T22:51:22.942Z,0.3
2023-03-05T22:57:15.067Z,0.2
2023-03-05T23:02:21.688Z,0.1
2023-03-05T23:08:15.131Z,0
2023-03-05T23:14:08.119Z,-0.1
2023-03-05T23:19:29.503Z,-0.2
2023-03-05T23:25:06.779Z,-0.3
2023-03-05T23:30:44.422Z,-0.3
2023-03-05T23:36:22.095Z,-0.4
2023-03-05T23:41:44.364Z,-0.4
2023-03-05T23:47:21.837Z,-0.6
2023-03-05T23:53:18.155Z,-0.6
2023-03-05T23:58:40.047Z,-0.8
